Time,TemperatureF,DewpointF,PressureIn,WindDirection,WindDirectionDegrees,WindSpeedMPH,WindSpeedGustMPH,Humidity,HourlyPrecipIn,Conditions,Clouds,dailyrainin,SoftwareType,DateUTC
2013-05-30 00:01:00,62.6,60.8,30.09,SSW,210,3.0,4.0,94,0.00,,,0.00,VWS V14.01,2013-05-30 04:01:00,
2013-05-30 00:13:00,62.6,60.8,30.09,SSW,210,3.0,3.0,94,0.00,,,0.00,VWS V14.01,2013-05-30 04:13:00,
2013-05-30 00:25:00,62.6,60.8,30.09,SSW,210,3.0,3.0,94,0.00,,,0.00,VWS V14.01,2013-05-30 04:25:00,
2013-05-30 00:44:00,62.6,60.8,30.09,SSW,210,3.0,3.0,94,0.00,,,0.00,VWS V14.01,2013-05-30 04:44:00,
2013-05-30 00:51:00,62.6,60.8,30.09,SSW,210,3.0,3.0,94,0.00,,,0.00,VWS V14.01,2013-05-30 04:51:00,
2013-05-30 00:56:00,62.6,60.8,30.09,SSW,210,3.0,3.0,94,0.00,,,0.00,VWS V14.01,2013-05-30 04:56:00,
2013-05-30 01:01:00,64.4,60.8,30.07,SSE,150,9.0,9.0,88,0.00,,,0.00,VWS V14.01,2013-05-30 05:01:00,
2013-05-30 01:09:00,64.4,60.8,30.07,SSE,150,9.0,9.0,88,0.00,,,0.00,VWS V14.01,2013-05-30 05:09:00,
2013-05-30 01:15:00,64.4,60.8,30.07,SSE,150,9.0,9.0,88,0.00,,,0.00,VWS V14.01,2013-05-30 05:15:00,
2013-05-30 01:24:00,64.4,60.8,30.07,SSE,150,9.0,9.0,88,0.00,,,0.00,VWS V14.01,2013-05-30 05:24:00,
2013-05-30 01:38:00,64.4,60.8,30.07,SSE,150,9.0,9.0,88,0.00,,,0.00,VWS V14.01,2013-05-30 05:38:00,
2013-05-30 01:51:00,64.4,60.8,30.07,SSE,150,9.0,9.0,88,0.00,,,0.00,VWS V14.01,2013-05-30 05:51:00,
2013-05-30 01:56:00,64.4,60.8,30.07,SSE,150,9.0,9.0,88,0.00,,,0.00,VWS V14.01,2013-05-30 05:56:00,
2013-05-30 02:01:00,59.0,57.3,30.07,North,0,0.0,0.0,94,0.00,,,0.00,VWS V14.01,2013-05-30 06:01:00,
2013-05-30 02:19:00,59.0,57.3,30.07,North,0,0.0,0.0,94,0.00,,,0.00,VWS V14.01,2013-05-30 06:19:00,
2013-05-30 02:30:00,59.0,57.3,30.07,North,0,0.0,0.0,94,0.00,,,0.00,VWS V14.01,2013-05-30 06:30:00,
2013-05-30 02:41:00,59.0,57.3,30.07,North,0,0.0,0.0,94,0.00,,,0.00,VWS V14.01,2013-05-30 06:41:00,
2013-05-30 02:51:00,59.0,57.3,30.07,North,0,0.0,0.0,94,0.00,,,0.00,VWS V14.01,2013-05-30 06:51:00,
2013-05-30 02:56:00,59.0,57.3,30.07,North,0,0.0,0.0,94,0.00,,,0.00,VWS V14.01,2013-05-30 06:56:00,
2013-05-30 03:01:00,59.0,57.3,30.06,North,0,0.0,0.0,94,0.00,,,0.00,VWS V14.01,2013-05-30 07:01:00,
2013-05-30 03:09:00,59.0,57.3,30.06,North,0,0.0,0.0,94,0.00,,,0.00,VWS V14.01,2013-05-30 07:09:00,
2013-05-30 03:27:00,59.0,57.3,30.06,North,0,0.0,0.0,94,0.00,,,0.00,VWS V14.01,2013-05-30 07:27:00,
2013-05-30 03:47:00,59.0,57.3,30.06,North,0,0.0,0.0,94,0.00,,,0.00,VWS V14.01,2013-05-30 07:47:00,
2013-05-30 03:52:00,59.0,57.3,30.06,North,0,0.0,0.0,94,0.00,,,0.00,VWS V14.01,2013-05-30 07:52:00,
2013-05-30 03:56:00,60.8,57.2,30.06,North,0,0.0,0.0,88,0.00,,,0.00,VWS V14.01,2013-05-30 07:56:00,
2013-05-30 03:57:00,59.0,57.3,30.06,North,0,0.0,0.0,94,0.00,,,0.00,VWS V14.01,2013-05-30 07:57:00,
2013-05-30 04:02:00,60.8,57.2,30.06,North,0,0.0,0.0,88,0.00,,,0.00,VWS V14.01,2013-05-30 08:02:00,
2013-05-30 04:09:00,60.8,57.2,30.06,North,0,0.0,0.0,88,0.00,,,0.00,VWS V14.01,2013-05-30 08:09:00,
2013-05-30 04:14:00,60.8,57.2,30.06,North,0,0.0,0.0,88,0.00,,,0.00,VWS V14.01,2013-05-30 08:14:00,
2013-05-30 04:51:00,60.8,57.2,30.06,North,0,0.0,0.0,88,0.00,,,0.00,VWS V14.01,2013-05-30 08:51:00,
2013-05-30 04:56:00,60.8,57.2,30.06,North,0,0.0,0.0,88,0.00,,,0.00,VWS V14.01,2013-05-30 08:56:00,
2013-05-30 05:01:00,59.0,57.3,30.07,SSW,200,5.0,5.0,94,0.00,,,0.00,VWS V14.01,2013-05-30 09:01:00,
2013-05-30 05:07:00,59.0,57.3,30.07,SSW,200,5.0,5.0,94,0.00,,,0.00,VWS V14.01,2013-05-30 09:07:00,
2013-05-30 05:13:00,59.0,57.3,30.07,SSW,200,5.0,5.0,94,0.00,,,0.00,VWS V14.01,2013-05-30 09:13:00,
2013-05-30 05:18:00,59.0,57.3,30.07,SSW,200,5.0,5.0,94,0.00,,,0.00,VWS V14.01,2013-05-30 09:18:00,
2013-05-30 05:35:00,59.0,57.3,30.07,SSW,200,5.0,5.0,94,0.00,,,0.00,VWS V14.01,2013-05-30 09:35:00,
2013-05-30 05:42:00,59.0,57.3,30.07,SSW,200,5.0,5.0,94,0.00,,,0.00,VWS V14.01,2013-05-30 09:42:00,
2013-05-30 05:47:00,59.0,57.3,30.07,SSW,200,5.0,5.0,94,0.00,,,0.00,VWS V14.01,2013-05-30 09:47:00,
2013-05-30 05:52:00,59.0,57.3,30.07,SSW,200,5.0,5.0,94,0.00,,,0.00,VWS V14.01,2013-05-30 09:52:00,
2013-05-30 05:56:00,57.2,57.2,30.08,North,0,0.0,0.0,100,0.00,,,0.00,VWS V14.01,2013-05-30 09:56:00,
2013-05-30 05:57:00,59.0,57.3,30.07,SSW,200,5.0,5.0,94,0.00,,,0.00,VWS V14.01,2013-05-30 09:57:00,
2013-05-30 06:02:00,57.2,57.2,30.08,North,0,0.0,0.0,100,0.00,,,0.00,VWS V14.01,2013-05-30 10:02:00,
2013-05-30 06:05:00,59.0,59.0,30.08,North,0,0.0,0.0,100,0.00,,,0.00,VWS V14.01,2013-05-30 10:05:00,
2013-05-30 06:09:00,59.0,59.0,30.08,North,0,0.0,0.0,100,0.00,,,0.00,VWS V14.01,2013-05-30 10:09:00,
2013-05-30 06:14:00,59.0,59.0,30.08,North,0,0.0,0.0,100,0.00,,,0.00,VWS V14.01,2013-05-30 10:14:00,
2013-05-30 06:21:00,59.0,59.0,30.08,North,0,0.0,0.0,100,0.00,,,0.00,VWS V14.01,2013-05-30 10:21:00,
2013-05-30 06:35:00,59.0,59.0,30.08,North,0,0.0,0.0,100,0.00,,,0.00,VWS V14.01,2013-05-30 10:35:00,
2013-05-30 06:40:00,59.0,59.0,30.08,North,0,0.0,0.0,100,0.00,,,0.00,VWS V14.01,2013-05-30 10:40:00,
2013-05-30 06:53:00,59.0,59.0,30.08,North,0,0.0,0.0,100,0.00,,,0.00,VWS V14.01,2013-05-30 10:53:00,
2013-05-30 06:56:00,64.4,62.6,30.10,North,0,0.0,0.0,94,0.00,,,0.00,VWS V14.01,2013-05-30 10:56:00,
2013-05-30 07:00:00,64.4,62.6,30.10,North,0,0.0,0.0,94,0.00,,,0.00,VWS V14.01,2013-05-30 11:00:00,
2013-05-30 07:05:00,64.4,62.6,30.10,North,0,0.0,0.0,94,0.00,,,0.00,VWS V14.01,2013-05-30 11:05:00,
2013-05-30 07:13:00,64.4,62.6,30.10,North,0,0.0,0.0,94,0.00,,,0.00,VWS V14.01,2013-05-30 11:13:00,
2013-05-30 07:26:00,64.4,62.6,30.10,North,0,0.0,0.0,94,0.00,,,0.00,VWS V14.01,2013-05-30 11:26:00,
2013-05-30 07:32:00,64.4,62.6,30.10,North,0,0.0,0.0,94,0.00,,,0.00,VWS V14.01,2013-05-30 11:32:00,
2013-05-30 07:41:00,64.4,62.6,30.10,North,0,0.0,0.0,94,0.00,,,0.00,VWS V14.01,2013-05-30 11:41:00,
2013-05-30 07:51:00,64.4,62.6,30.10,North,0,0.0,0.0,94,0.00,,,0.00,VWS V14.01,2013-05-30 11:51:00,
2013-05-30 07:56:00,68.0,64.3,30.10,SSW,210,3.0,3.0,88,0.00,,,0.00,VWS V14.01,2013-05-30 11:56:00,
2013-05-30 07:57:00,64.4,62.6,30.10,North,0,0.0,0.0,94,0.00,,,0.00,VWS V14.01,2013-05-30 11:57:00,
2013-05-30 08:02:00,68.0,64.3,30.10,SSW,210,3.0,3.0,88,0.00,,,0.00,VWS V14.01,2013-05-30 12:02:00,
2013-05-30 08:08:00,68.0,64.3,30.10,SSW,210,3.0,3.0,88,0.00,,,0.00,VWS V14.01,2013-05-30 12:08:00,
2013-05-30 08:31:00,68.0,64.3,30.10,SSW,210,3.0,3.0,88,0.00,,,0.00,VWS V14.01,2013-05-30 12:31:00,
2013-05-30 08:36:00,68.0,64.3,30.10,SSW,210,3.0,3.0,88,0.00,,,0.00,VWS V14.01,2013-05-30 12:36:00,
2013-05-30 08:41:00,68.0,64.3,30.10,SSW,210,3.0,3.0,88,0.00,,,0.00,VWS V14.01,2013-05-30 12:41:00,
2013-05-30 08:47:00,68.0,64.3,30.10,SSW,210,3.0,3.0,88,0.00,,,0.00,VWS V14.01,2013-05-30 12:47:00,
2013-05-30 08:52:00,68.0,64.3,30.10,SSW,210,3.0,3.0,88,0.00,,,0.00,VWS V14.01,2013-05-30 12:52:00,
2013-05-30 08:56:00,71.6,64.4,30.10,SW,220,5.0,5.0,78,0.00,,,0.00,VWS V14.01,2013-05-30 12:56:00,
2013-05-30 08:57:00,68.0,64.3,30.10,SSW,210,3.0,3.0,88,0.00,,,0.00,VWS V14.01,2013-05-30 12:57:00,
2013-05-30 09:02:00,71.6,64.4,30.10,SW,220,5.0,5.0,78,0.00,,,0.00,VWS V14.01,2013-05-30 13:02:00,
2013-05-30 09:33:00,71.6,64.4,30.10,SW,220,5.0,5.0,78,0.00,,,0.00,VWS V14.01,2013-05-30 13:33:00,
2013-05-30 09:40:00,71.6,64.4,30.10,SW,220,5.0,5.0,78,0.00,,,0.00,VWS V14.01,2013-05-30 13:40:00,
2013-05-30 09:51:00,71.6,64.4,30.10,SW,220,5.0,5.0,78,0.00,,,0.00,VWS V14.01,2013-05-30 13:51:00,
2013-05-30 09:56:00,71.6,64.4,30.10,SW,220,5.0,5.0,78,0.00,,,0.00,VWS V14.01,2013-05-30 13:56:00,
2013-05-30 10:01:00,73.4,66.1,30.10,SSW,210,5.0,5.0,78,0.00,,,0.00,VWS V14.01,2013-05-30 14:01:00,
2013-05-30 10:10:00,73.4,66.1,30.10,SSW,210,5.0,5.0,78,0.00,,,0.00,VWS V14.01,2013-05-30 14:10:00,
2013-05-30 10:18:00,73.4,66.1,30.10,SSW,210,5.0,5.0,78,0.00,,,0.00,VWS V14.01,2013-05-30 14:18:00,
2013-05-30 10:31:00,73.4,66.1,30.10,SSW,210,5.0,5.0,78,0.00,,,0.00,VWS V14.01,2013-05-30 14:31:00,
2013-05-30 10:38:00,73.4,66.1,30.10,SSW,210,5.0,5.0,78,0.00,,,0.00,VWS V14.01,2013-05-30 14:38:00,
2013-05-30 10:51:00,73.4,66.1,30.10,SSW,210,5.0,5.0,78,0.00,,,0.00,VWS V14.01,2013-05-30 14:51:00,
2013-05-30 10:56:00,73.4,66.1,30.10,SSW,210,5.0,5.0,78,0.00,,,0.00,VWS V14.01,2013-05-30 14:56:00,
2013-05-30 11:01:00,73.4,66.1,30.10,SW,220,8.0,8.0,78,0.00,,,0.00,VWS V14.01,2013-05-30 15:01:00,
2013-05-30 11:11:00,73.4,66.1,30.10,SW,220,8.0,8.0,78,0.00,,,0.00,VWS V14.01,2013-05-30 15:11:00,
2013-05-30 11:30:00,73.4,66.1,30.10,SW,220,8.0,8.0,78,0.00,,,0.00,VWS V14.01,2013-05-30 15:30:00,
2013-05-30 11:38:00,73.4,66.1,30.10,SW,220,8.0,8.0,78,0.00,,,0.00,VWS V14.01,2013-05-30 15:38:00,
2013-05-30 11:51:00,73.4,66.1,30.10,SW,220,8.0,8.0,78,0.00,,,0.00,VWS V14.01,2013-05-30 15:51:00,
2013-05-30 11:56:00,73.4,66.1,30.10,SW,220,8.0,8.0,78,0.00,,,0.00,VWS V14.01,2013-05-30 15:56:00,
2013-05-30 12:01:00,75.2,66.3,30.10,SW,220,12.0,12.0,74,0.00,,,0.00,VWS V14.01,2013-05-30 16:01:00,
2013-05-30 12:06:00,75.2,66.3,30.10,SW,220,12.0,12.0,74,0.00,,,0.00,VWS V14.01,2013-05-30 16:06:00,
2013-05-30 12:14:00,75.2,66.3,30.10,SW,220,12.0,12.0,74,0.00,,,0.00,VWS V14.01,2013-05-30 16:14:00,
2013-05-30 12:21:00,75.2,66.3,30.10,SW,220,12.0,12.0,74,0.00,,,0.00,VWS V14.01,2013-05-30 16:21:00,
2013-05-30 12:29:00,75.2,66.3,30.10,SW,220,12.0,12.0,74,0.00,,,0.00,VWS V14.01,2013-05-30 16:29:00,
2013-05-30 12:56:00,78.8,68.2,30.09,SW,230,13.0,13.0,70,0.00,,,0.00,VWS V14.01,2013-05-30 16:56:00,
2013-05-30 12:57:00,75.2,66.3,30.10,SW,220,12.0,12.0,74,0.00,,,0.00,VWS V14.01,2013-05-30 16:57:00,
2013-05-30 13:02:00,78.8,68.2,30.09,SW,230,13.0,13.0,70,0.00,,,0.00,VWS V14.01,2013-05-30 17:02:00,
2013-05-30 13:56:00,82.4,69.9,30.08,SW,230,10.0,10.0,66,0.00,,,0.00,VWS V14.01,2013-05-30 17:56:00,
2013-05-30 13:57:00,78.8,68.2,30.09,SW,230,13.0,13.0,70,0.00,,,0.00,VWS V14.01,2013-05-30 17:57:00,
2013-05-30 14:02:00,82.4,69.9,30.08,SW,230,10.0,10.0,66,0.00,,,0.00,VWS V14.01,2013-05-30 18:02:00,
2013-05-30 14:52:00,82.4,69.9,30.08,SW,230,10.0,10.0,66,0.00,,,0.00,VWS V14.01,2013-05-30 18:52:00,
2013-05-30 14:56:00,73.4,66.1,30.07,SSW,200,9.0,9.0,78,0.00,,,0.00,VWS V14.01,2013-05-30 18:56:00,
2013-05-30 14:57:00,82.4,69.9,30.08,SW,230,10.0,10.0,66,0.00,,,0.00,VWS V14.01,2013-05-30 18:57:00,
2013-05-30 15:02:00,73.4,66.1,30.07,SSW,200,9.0,9.0,78,0.00,,,0.00,VWS V14.01,2013-05-30 19:02:00,
2013-05-30 15:14:00,73.4,66.1,30.07,SSW,200,9.0,9.0,78,0.00,,,0.00,VWS V14.01,2013-05-30 19:14:00,
2013-05-30 15:56:00,73.4,66.1,30.07,SSW,200,9.0,9.0,78,0.00,,,0.00,VWS V14.01,2013-05-30 19:56:00,
2013-05-30 16:01:00,75.2,66.3,30.06,SSW,200,6.0,6.0,74,0.00,,,0.00,VWS V14.01,2013-05-30 20:01:00,
2013-05-30 16:08:00,75.2,66.3,30.06,SSW,200,6.0,6.0,74,0.00,,,0.00,VWS V14.01,2013-05-30 20:08:00,
2013-05-30 16:13:00,75.2,66.3,30.06,SSW,200,6.0,6.0,74,0.00,,,0.00,VWS V14.01,2013-05-30 20:13:00,
2013-05-30 16:54:00,75.2,66.3,30.06,SSW,200,6.0,6.0,74,0.00,,,0.00,VWS V14.01,2013-05-30 20:54:00,
2013-05-30 16:56:00,73.4,66.1,30.05,South,180,6.0,6.0,78,0.00,,,0.00,VWS V14.01,2013-05-30 20:56:00,
2013-05-30 16:59:00,75.2,66.3,30.06,SSW,200,6.0,6.0,74,0.00,,,0.00,VWS V14.01,2013-05-30 20:59:00,
2013-05-30 17:04:00,73.4,66.1,30.05,South,180,6.0,6.0,78,0.00,,,0.00,VWS V14.01,2013-05-30 21:04:00,
2013-05-30 17:19:00,73.4,66.1,30.05,South,180,6.0,6.0,78,0.00,,,0.00,VWS V14.01,2013-05-30 21:19:00,
2013-05-30 17:33:00,73.4,66.1,30.05,South,180,6.0,6.0,78,0.00,,,0.00,VWS V14.01,2013-05-30 21:33:00,
2013-05-30 17:52:00,73.4,66.1,30.05,South,180,6.0,6.0,78,0.00,,,0.00,VWS V14.01,2013-05-30 21:52:00,
2013-05-30 17:56:00,73.4,66.1,30.05,North,0,4.0,4.0,78,0.00,,,0.00,VWS V14.01,2013-05-30 21:56:00,
2013-05-30 17:57:00,73.4,66.1,30.05,South,180,6.0,6.0,78,0.00,,,0.00,VWS V14.01,2013-05-30 21:57:00,
2013-05-30 18:02:00,73.4,66.1,30.05,North,0,4.0,4.0,78,0.00,,,0.00,VWS V14.01,2013-05-30 22:02:00,
2013-05-30 18:16:00,73.4,66.1,30.05,North,0,4.0,4.0,78,0.00,,,0.00,VWS V14.01,2013-05-30 22:16:00,
2013-05-30 18:27:00,73.4,66.1,30.05,North,0,4.0,4.0,78,0.00,,,0.00,VWS V14.01,2013-05-30 22:27:00,
2013-05-30 18:37:00,73.4,66.1,30.05,North,0,4.0,4.0,78,0.00,,,0.00,VWS V14.01,2013-05-30 22:37:00,
2013-05-30 18:45:00,73.4,66.1,30.05,North,0,4.0,4.0,78,0.00,,,0.00,VWS V14.01,2013-05-30 22:45:00,
2013-05-30 18:52:00,73.4,66.1,30.05,North,0,4.0,4.0,78,0.00,,,0.00,VWS V14.01,2013-05-30 22:52:00,
2013-05-30 18:56:00,73.4,64.2,30.05,SSW,210,3.0,3.0,73,0.00,,,0.00,VWS V14.01,2013-05-30 22:56:00,
2013-05-30 18:57:00,73.4,66.1,30.05,North,0,4.0,4.0,78,0.00,,,0.00,VWS V14.01,2013-05-30 22:57:00,
2013-05-30 19:02:00,73.4,64.2,30.05,SSW,210,3.0,3.0,73,0.00,,,0.00,VWS V14.01,2013-05-30 23:02:00,
2013-05-30 19:22:00,73.4,64.2,30.05,SSW,210,3.0,3.0,73,0.00,,,0.00,VWS V14.01,2013-05-30 23:22:00,
2013-05-30 19:36:00,73.4,64.2,30.05,SSW,210,3.0,3.0,73,0.00,,,0.00,VWS V14.01,2013-05-30 23:36:00,
2013-05-30 19:43:00,73.4,64.2,30.05,SSW,210,3.0,3.0,73,0.00,,,0.00,VWS V14.01,2013-05-30 23:43:00,
2013-05-30 19:48:00,73.4,64.2,30.05,SSW,210,3.0,3.0,73,0.00,,,0.00,VWS V14.01,2013-05-30 23:48:00,
2013-05-30 19:53:00,73.4,64.2,30.05,SSW,210,3.0,3.0,73,0.00,,,0.00,VWS V14.01,2013-05-30 23:53:00,
2013-05-30 19:56:00,73.4,64.2,30.06,SSW,210,3.0,3.0,73,0.00,,,0.00,VWS V14.01,2013-05-30 23:56:00,
2013-05-30 19:58:00,73.4,64.2,30.05,SSW,210,3.0,3.0,73,0.00,,,0.00,VWS V14.01,2013-05-30 23:58:00,
2013-05-30 20:03:00,73.4,64.2,30.06,SSW,210,3.0,3.0,73,0.00,,,0.00,VWS V14.01,2013-05-31 00:03:00,
2013-05-30 20:17:00,73.4,64.2,30.06,SSW,210,3.0,3.0,73,0.00,,,0.00,VWS V14.01,2013-05-31 00:17:00,
2013-05-30 20:24:00,73.4,64.2,30.06,SSW,210,3.0,3.0,73,0.00,,,0.00,VWS V14.01,2013-05-31 00:24:00,
2013-05-30 20:37:00,73.4,64.2,30.06,SSW,210,3.0,3.0,73,0.00,,,0.00,VWS V14.01,2013-05-31 00:37:00,
2013-05-30 20:47:00,73.4,64.2,30.06,SSW,210,3.0,3.0,73,0.00,,,0.00,VWS V14.01,2013-05-31 00:47:00,
2013-05-30 20:52:00,73.4,64.2,30.06,SSW,210,3.0,3.0,73,0.00,,,0.00,VWS V14.01,2013-05-31 00:52:00,
2013-05-30 20:56:00,69.8,64.4,30.07,North,0,0.0,0.0,83,0.00,,CLR,0.00,VWS V14.01,2013-05-31 00:56:00,
2013-05-30 20:57:00,73.4,64.2,30.06,SSW,210,3.0,3.0,73,0.00,,,0.00,VWS V14.01,2013-05-31 00:57:00,
2013-05-30 21:02:00,69.8,64.4,30.07,North,0,0.0,0.0,83,0.00,,CLR,0.00,VWS V14.01,2013-05-31 01:02:00,
2013-05-30 21:12:00,69.8,64.4,30.07,North,0,0.0,0.0,83,0.00,,CLR,0.00,VWS V14.01,2013-05-31 01:12:00,
2013-05-30 21:21:00,69.8,64.4,30.07,North,0,0.0,0.0,83,0.00,,CLR,0.00,VWS V14.01,2013-05-31 01:21:00,
2013-05-30 21:51:00,69.8,64.4,30.07,North,0,0.0,0.0,83,0.00,,CLR,0.00,VWS V14.01,2013-05-31 01:51:00,
2013-05-30 21:56:00,69.8,64.4,30.07,North,0,0.0,0.0,83,0.00,,CLR,0.00,VWS V14.01,2013-05-31 01:56:00,
2013-05-30 22:01:00,71.6,62.5,30.07,North,0,5.0,5.0,73,0.00,,CLR,0.00,VWS V14.01,2013-05-31 02:01:00,
2013-05-30 22:11:00,71.6,62.5,30.07,North,0,5.0,5.0,73,0.00,,CLR,0.00,VWS V14.01,2013-05-31 02:11:00,
2013-05-30 22:34:00,71.6,62.5,30.07,North,0,5.0,5.0,73,0.00,,CLR,0.00,VWS V14.01,2013-05-31 02:34:00,
2013-05-30 22:50:00,71.6,62.5,30.07,North,0,5.0,5.0,73,0.00,,CLR,0.00,VWS V14.01,2013-05-31 02:50:00,
2013-05-30 22:55:00,71.6,62.5,30.07,North,0,5.0,5.0,73,0.00,,CLR,0.00,VWS V14.01,2013-05-31 02:55:00,
2013-05-30 22:56:00,73.4,62.6,30.08,West,270,5.0,5.0,69,0.00,,CLR,0.00,VWS V14.01,2013-05-31 02:56:00,
2013-05-30 23:00:00,71.6,62.5,30.07,North,0,5.0,5.0,73,0.00,,CLR,0.00,VWS V14.01,2013-05-31 03:00:00,
2013-05-30 23:48:00,73.4,62.6,30.08,West,270,5.0,5.0,69,0.00,,CLR,0.00,VWS V14.01,2013-05-31 03:48:00,
2013-05-30 23:53:00,73.4,62.6,30.08,West,270,5.0,5.0,69,0.00,,CLR,0.00,VWS V14.01,2013-05-31 03:53:00,
2013-05-30 23:56:00,68.0,62.7,30.08,SSW,210,3.0,3.0,83,0.00,,CLR,0.00,VWS V14.01,2013-05-31 03:56:00,
2013-05-30 23:58:00,73.4,62.6,30.08,West,270,5.0,5.0,69,0.00,,CLR,0.00,VWS V14.01,2013-05-31 03:58:00,